Time;durP1;ratioP1;P1;durP2;ratioP2;P2;SDS_P1;SDS_P2;PMS_P1;PMS_P2;Temp;Humidity;BMP_temperature;BMP_pressure;BME280_temperature;BME280_humidity;BME280_pressure;Samples;Min_cycle;Max_cycle;Signal;HPM_P1;HPM_P2
2022/05/04 00:01:20;;;;;;;;;;;13.20;69.40;;;;;;5073950;28;19958;-68
2022/05/04 00:03:46;;;;;;;;;;;13.20;69.40;;;;;;5075294;28;20580;-68
2022/05/04 00:06:11;;;;;;;;;;;13.10;69.40;;;;;;5083973;28;19916;-68
2022/05/04 00:08:37;;;;;;;;;;;13.10;69.20;;;;;;5082378;28;19961;-68
2022/05/04 00:11:04;;;;;;;;;;;13.10;69.50;;;;;;5079209;28;20000;-68
2022/05/04 00:13:31;;;;;;;;;;;13.10;69.70;;;;;;5082490;28;19916;-68
2022/05/04 00:15:57;;;;;;;;;;;13.00;69.80;;;;;;5086770;28;19939;-68
2022/05/04 00:18:22;;;;;;;;;;;13.00;69.80;;;;;;5077784;28;19924;-68
2022/05/04 00:20:48;;;;;;;;;;;13.00;70.00;;;;;;5082540;28;19931;-68
2022/05/04 00:23:13;;;;;;;;;;;12.90;69.90;;;;;;5074855;28;19970;-68
2022/05/04 00:25:39;;;;;;;;;;;12.90;70.10;;;;;;5074388;28;19913;-68
2022/05/04 00:28:05;;;;;;;;;;;12.90;70.10;;;;;;5072732;28;19908;-68
2022/05/04 00:30:31;;;;;;;;;;;12.90;70.30;;;;;;5079237;28;20693;-68
2022/05/04 00:32:56;;;;;;;;;;;12.80;70.20;;;;;;5071826;28;20365;-68
2022/05/04 00:35:22;;;;;;;;;;;12.80;70.20;;;;;;5076066;28;19978;-68
2022/05/04 00:37:47;;;;;;;;;;;12.80;70.20;;;;;;5073229;28;19919;-68
2022/05/04 00:40:13;;;;;;;;;;;12.80;70.40;;;;;;5079300;28;19983;-68
2022/05/04 00:42:38;;;;;;;;;;;12.70;70.30;;;;;;5075597;28;20007;-68
2022/05/04 00:45:04;;;;;;;;;;;12.70;70.50;;;;;;5079295;28;20284;-68
2022/05/04 00:47:30;;;;;;;;;;;12.70;70.50;;;;;;5074931;28;19974;-68
2022/05/04 00:49:56;;;;;;;;;;;12.70;70.50;;;;;;5071169;28;19942;-68
2022/05/04 00:52:22;;;;;;;;;;;12.60;70.60;;;;;;5079997;28;20335;-68
2022/05/04 00:54:51;;;;;;;;;;;12.60;70.70;;;;;;5076372;28;19939;-68
2022/05/04 00:58:54;;;;;;;;;;;12.60;70.90;;;;;;5080025;28;19913;-68
2022/05/04 01:00:04;;;;;;;;;;;12.50;70.70;;;;;;5071738;28;19919;-68
2022/05/04 01:02:29;;;;;;;;;;;12.50;70.90;;;;;;5077782;28;19916;-68
2022/05/04 01:04:55;;;;;;;;;;;12.50;70.70;;;;;;5070392;28;19923;-68
2022/05/04 01:07:21;;;;;;;;;;;12.50;71.00;;;;;;5084286;28;20352;-68
2022/05/04 01:09:47;;;;;;;;;;;12.50;70.90;;;;;;5076129;28;20689;-68
2022/05/04 01:12:12;;;;;;;;;;;12.40;70.90;;;;;;5078567;28;19912;-68
2022/05/04 01:14:38;;;;;;;;;;;12.40;71.00;;;;;;5078972;28;19946;-68
2022/05/04 01:17:03;;;;;;;;;;;12.40;71.10;;;;;;5075411;28;19912;-68
2022/05/04 01:19:29;;;;;;;;;;;12.40;71.20;;;;;;5075534;28;19909;-68
2022/05/04 01:21:54;;;;;;;;;;;12.30;71.00;;;;;;5076650;28;19969;-68
2022/05/04 01:24:20;;;;;;;;;;;12.30;71.10;;;;;;5072192;28;19944;-68
2022/05/04 01:26:45;;;;;;;;;;;12.30;71.90;;;;;;5079524;28;19921;-68
2022/05/04 01:29:11;;;;;;;;;;;12.30;71.40;;;;;;5079255;28;20482;-68
2022/05/04 01:31:36;;;;;;;;;;;12.20;71.30;;;;;;5077802;28;19927;-68
2022/05/04 01:34:02;;;;;;;;;;;12.20;71.20;;;;;;5086921;28;19913;-68
2022/05/04 01:36:28;;;;;;;;;;;12.20;71.30;;;;;;5073240;28;20307;-68
2022/05/04 01:38:53;;;;;;;;;;;12.20;71.40;;;;;;5073523;28;19979;-68
2022/05/04 01:44:03;;;;;;;;;;;12.10;71.40;;;;;;5083621;28;19919;-68
2022/05/04 01:46:28;;;;;;;;;;;12.10;71.50;;;;;;5075831;28;19916;-68
2022/05/04 01:48:54;;;;;;;;;;;12.10;71.60;;;;;;5077653;28;19916;-68
2022/05/04 01:51:19;;;;;;;;;;;12.10;71.60;;;;;;5069982;28;19912;-68
2022/05/04 01:53:45;;;;;;;;;;;12.00;71.60;;;;;;5081101;28;20325;-68
2022/05/04 01:56:11;;;;;;;;;;;12.00;71.60;;;;;;5075320;28;19912;-68
2022/05/04 01:58:37;;;;;;;;;;;12.00;71.70;;;;;;5073635;28;19920;-68
2022/05/04 02:01:02;;;;;;;;;;;12.00;71.70;;;;;;5073795;28;20001;-68
2022/05/04 02:03:28;;;;;;;;;;;12.00;71.80;;;;;;5081777;28;19987;-68
2022/05/04 02:05:54;;;;;;;;;;;12.00;71.90;;;;;;5079431;28;19909;-68
2022/05/04 02:08:20;;;;;;;;;;;11.90;71.80;;;;;;5071011;28;19917;-68
2022/05/04 02:10:45;;;;;;;;;;;11.90;71.80;;;;;;5079160;28;19968;-68
2022/05/04 02:13:11;;;;;;;;;;;11.90;71.70;;;;;;5076414;28;19924;-68
2022/05/04 02:15:36;;;;;;;;;;;11.90;71.80;;;;;;5086537;28;20570;-68
2022/05/04 02:18:02;;;;;;;;;;;11.80;71.90;;;;;;5080305;28;19916;-68
2022/05/04 02:20:27;;;;;;;;;;;11.90;72.00;;;;;;5088611;28;19912;-68
2022/05/04 02:22:53;;;;;;;;;;;11.80;71.90;;;;;;5072595;28;20065;-68
2022/05/04 02:25:18;;;;;;;;;;;11.80;72.00;;;;;;5081535;28;19912;-68
2022/05/04 02:27:44;;;;;;;;;;;11.80;71.90;;;;;;5072647;28;19913;-68
2022/05/04 02:30:09;;;;;;;;;;;11.70;71.90;;;;;;5081982;28;19920;-68
2022/05/04 02:32:35;;;;;;;;;;;11.70;71.90;;;;;;5077196;28;19916;-68
2022/05/04 02:38:00;;;;;;;;;;;11.70;72.20;;;;;;5072392;28;20264;-68
2022/05/04 02:40:29;;;;;;;;;;;11.70;72.20;;;;;;5078257;28;19981;-68
2022/05/04 02:42:54;;;;;;;;;;;11.60;72.20;;;;;;5076691;28;19970;-68
2022/05/04 02:45:20;;;;;;;;;;;11.60;72.30;;;;;;5074235;28;19916;-68
2022/05/04 02:47:46;;;;;;;;;;;11.60;72.10;;;;;;5075600;28;19938;-68
2022/05/04 02:50:11;;;;;;;;;;;11.60;72.20;;;;;;5082525;28;19962;-68
2022/05/04 02:52:37;;;;;;;;;;;11.60;72.40;;;;;;5087412;28;19955;-68
2022/05/04 02:55:03;;;;;;;;;;;11.60;72.30;;;;;;5075755;28;19924;-68
2022/05/04 02:57:28;;;;;;;;;;;11.50;72.30;;;;;;5086842;28;19908;-67
2022/05/04 02:59:54;;;;;;;;;;;11.50;72.50;;;;;;5081733;28;20003;-67
2022/05/04 03:02:28;;;;;;;;;;;11.50;72.50;;;;;;5091207;28;20406;-67
2022/05/04 03:04:58;;;;;;;;;;;11.50;72.50;;;;;;5077184;28;19912;-67
2022/05/04 03:07:24;;;;;;;;;;;11.40;72.50;;;;;;5082347;28;19991;-67
2022/05/04 03:09:50;;;;;;;;;;;11.40;72.30;;;;;;5079916;28;20035;-67
2022/05/04 03:12:15;;;;;;;;;;;11.40;72.40;;;;;;5090567;28;19914;-67
2022/05/04 03:14:41;;;;;;;;;;;11.40;72.50;;;;;;5077180;28;20401;-67
2022/05/04 03:17:06;;;;;;;;;;;11.40;72.60;;;;;;5083599;28;19923;-67
2022/05/04 03:19:32;;;;;;;;;;;11.40;72.80;;;;;;5084418;28;19970;-67
2022/05/04 03:21:57;;;;;;;;;;;11.40;72.80;;;;;;5082507;28;19924;-67
2022/05/04 03:24:23;;;;;;;;;;;11.30;72.80;;;;;;5074204;28;20380;-67
2022/05/04 03:26:48;;;;;;;;;;;11.30;72.70;;;;;;5082565;28;20034;-67
2022/05/04 03:29:14;;;;;;;;;;;11.30;72.80;;;;;;5078702;28;20458;-67
2022/05/04 03:31:40;;;;;;;;;;;11.30;72.70;;;;;;5074127;28;19916;-67
2022/05/04 03:34:05;;;;;;;;;;;11.30;72.90;;;;;;5078630;28;19916;-67
2022/05/04 03:36:31;;;;;;;;;;;11.20;72.80;;;;;;5077512;28;19987;-67
2022/05/04 03:38:58;;;;;;;;;;;11.20;72.70;;;;;;5081622;28;20690;-67
2022/05/04 03:41:23;;;;;;;;;;;11.20;72.70;;;;;;5071061;28;19917;-67
2022/05/04 03:43:49;;;;;;;;;;;11.20;72.80;;;;;;5084546;28;19924;-67
2022/05/04 03:46:16;;;;;;;;;;;11.20;72.80;;;;;;5088152;28;20380;-67
2022/05/04 03:48:43;;;;;;;;;;;11.20;72.90;;;;;;5083944;28;19916;-67
2022/05/04 03:51:09;;;;;;;;;;;11.20;72.90;;;;;;5083430;27;19908;-67
2022/05/04 03:53:36;;;;;;;;;;;11.10;72.80;;;;;;5080278;28;21550;-67
2022/05/04 03:56:02;;;;;;;;;;;11.10;72.80;;;;;;5079904;28;20019;-67
2022/05/04 03:58:27;;;;;;;;;;;11.10;72.90;;;;;;5076584;28;20003;-67
2022/05/04 04:00:53;;;;;;;;;;;11.10;72.70;;;;;;5075053;28;19943;-67
2022/05/04 04:03:18;;;;;;;;;;;11.10;72.90;;;;;;5075103;28;20313;-67
2022/05/04 04:05:44;;;;;;;;;;;11.10;72.90;;;;;;5079109;28;19908;-67
2022/05/04 04:08:09;;;;;;;;;;;11.10;72.80;;;;;;5081147;28;19931;-67
2022/05/04 04:10:35;;;;;;;;;;;11.00;72.90;;;;;;5081238;28;19908;-67
2022/05/04 04:13:01;;;;;;;;;;;11.00;72.90;;;;;;5075804;28;19913;-67
2022/05/04 04:15:27;;;;;;;;;;;11.00;72.90;;;;;;5080286;28;19916;-67
2022/05/04 04:17:54;;;;;;;;;;;11.00;72.90;;;;;;5077352;28;19935;-67
2022/05/04 04:23:04;;;;;;;;;;;11.00;72.90;;;;;;5078568;28;19993;-67
2022/05/04 04:25:29;;;;;;;;;;;11.00;73.00;;;;;;5079570;28;19954;-67
2022/05/04 04:27:55;;;;;;;;;;;11.00;72.90;;;;;;5076908;28;20277;-67
2022/05/04 04:30:20;;;;;;;;;;;11.00;72.90;;;;;;5078671;28;19908;-67
2022/05/04 04:32:46;;;;;;;;;;;10.90;72.90;;;;;;5077402;28;19920;-67
2022/05/04 04:35:11;;;;;;;;;;;10.90;73.00;;;;;;5083447;28;19916;-67
2022/05/04 04:37:36;;;;;;;;;;;10.90;73.00;;;;;;5076885;28;19919;-67
2022/05/04 04:40:02;;;;;;;;;;;10.90;73.10;;;;;;5080460;28;19917;-67
2022/05/04 04:42:28;;;;;;;;;;;10.90;73.10;;;;;;5076848;28;19912;-67
2022/05/04 04:44:53;;;;;;;;;;;10.90;72.90;;;;;;5074532;28;19993;-67
2022/05/04 04:47:19;;;;;;;;;;;10.90;72.90;;;;;;5082571;28;20424;-67
2022/05/04 04:49:44;;;;;;;;;;;10.90;73.00;;;;;;5081197;28;19977;-67
2022/05/04 04:52:10;;;;;;;;;;;10.90;73.10;;;;;;5081656;28;20021;-67
2022/05/04 04:54:35;;;;;;;;;;;10.90;73.00;;;;;;5085264;28;19919;-67
2022/05/04 04:57:00;;;;;;;;;;;10.90;73.10;;;;;;5072087;28;19957;-67
2022/05/04 04:59:26;;;;;;;;;;;10.90;73.00;;;;;;5074409;28;19952;-67
2022/05/04 05:01:51;;;;;;;;;;;10.90;73.00;;;;;;5085893;28;19917;-67
2022/05/04 05:04:17;;;;;;;;;;;10.80;73.00;;;;;;5077907;28;19915;-67
2022/05/04 05:06:42;;;;;;;;;;;10.80;73.10;;;;;;5085738;28;19918;-67
2022/05/04 05:09:08;;;;;;;;;;;10.80;73.10;;;;;;5090318;28;23508;-67
2022/05/04 05:11:33;;;;;;;;;;;10.80;73.20;;;;;;5083909;28;20400;-67
2022/05/04 05:16:43;;;;;;;;;;;10.80;73.10;;;;;;5082222;28;20465;-67
2022/05/04 05:19:08;;;;;;;;;;;10.80;73.00;;;;;;5087512;28;20046;-67
2022/05/04 05:21:34;;;;;;;;;;;10.90;73.30;;;;;;5077301;28;20249;-67
2022/05/04 05:23:59;;;;;;;;;;;10.80;73.10;;;;;;5077713;28;19943;-67
2022/05/04 05:26:25;;;;;;;;;;;10.90;73.20;;;;;;5077693;28;19912;-67
2022/05/04 05:28:50;;;;;;;;;;;10.80;72.90;;;;;;5087494;28;20615;-67
2022/05/04 05:31:16;;;;;;;;;;;10.80;73.10;;;;;;5074414;28;19916;-67
2022/05/04 05:33:45;;;;;;;;;;;10.80;73.10;;;;;;5078150;28;20681;-67
2022/05/04 05:36:10;;;;;;;;;;;10.80;73.10;;;;;;5072879;28;20004;-67
2022/05/04 05:38:36;;;;;;;;;;;10.90;73.20;;;;;;5081268;28;20305;-67
2022/05/04 05:41:01;;;;;;;;;;;10.80;73.00;;;;;;5076260;28;19935;-67
2022/05/04 05:43:28;;;;;;;;;;;10.80;73.00;;;;;;5074782;28;19972;-67
2022/05/04 05:45:53;;;;;;;;;;;10.80;72.90;;;;;;5072191;28;20258;-67
2022/05/04 05:48:20;;;;;;;;;;;10.90;73.00;;;;;;5088760;28;19916;-67
2022/05/04 05:50:47;;;;;;;;;;;10.80;73.00;;;;;;5080791;28;20008;-67
2022/05/04 05:53:14;;;;;;;;;;;10.80;73.10;;;;;;5079761;28;19911;-67
2022/05/04 05:55:43;;;;;;;;;;;10.80;73.10;;;;;;5074438;28;19933;-67
2022/05/04 05:58:10;;;;;;;;;;;10.90;73.10;;;;;;5082923;28;20372;-67
2022/05/04 06:00:35;;;;;;;;;;;10.90;72.90;;;;;;5071680;28;19915;-67
2022/05/04 06:03:01;;;;;;;;;;;10.80;73.10;;;;;;5078216;28;19920;-67
2022/05/04 06:05:26;;;;;;;;;;;10.80;72.90;;;;;;5075460;28;20019;-67
2022/05/04 06:07:52;;;;;;;;;;;10.80;72.70;;;;;;5075727;28;19931;-67
2022/05/04 06:10:17;;;;;;;;;;;10.80;72.80;;;;;;5084354;28;19912;-67
2022/05/04 06:12:44;;;;;;;;;;;10.80;72.80;;;;;;5071333;28;19912;-67
2022/05/04 06:15:09;;;;;;;;;;;10.80;72.80;;;;;;5085277;28;20260;-67
2022/05/04 06:17:36;;;;;;;;;;;10.80;72.70;;;;;;5072268;28;19958;-67
2022/05/04 06:20:01;;;;;;;;;;;10.80;72.70;;;;;;5082954;28;19966;-67
2022/05/04 06:22:27;;;;;;;;;;;10.80;72.70;;;;;;5076493;28;19920;-67
2022/05/04 06:24:52;;;;;;;;;;;10.90;72.70;;;;;;5078885;28;20055;-67
2022/05/04 06:27:18;;;;;;;;;;;10.90;72.70;;;;;;5076379;28;20065;-67
2022/05/04 06:35:11;;;;;;;;;;;10.90;72.60;;;;;;5092674;28;19919;-67
2022/05/04 06:37:37;;;;;;;;;;;10.90;72.70;;;;;;5084278;28;19920;-67
2022/05/04 06:40:03;;;;;;;;;;;10.90;72.60;;;;;;5088405;28;19926;-67
2022/05/04 06:42:29;;;;;;;;;;;10.90;72.50;;;;;;5080726;28;19917;-67
2022/05/04 06:44:55;;;;;;;;;;;10.90;72.60;;;;;;5081635;28;19912;-67
2022/05/04 06:47:20;;;;;;;;;;;10.90;72.50;;;;;;5076297;28;19908;-67
2022/05/04 06:49:46;;;;;;;;;;;11.00;72.50;;;;;;5074441;28;19921;-67
2022/05/04 06:52:11;;;;;;;;;;;11.00;72.50;;;;;;5083626;28;19912;-67
2022/05/04 06:54:37;;;;;;;;;;;11.00;72.60;;;;;;5081880;28;19916;-67
2022/05/04 06:57:02;;;;;;;;;;;11.00;72.60;;;;;;5087731;28;20280;-67
2022/05/04 06:59:28;;;;;;;;;;;11.00;72.70;;;;;;5084154;28;20480;-67
2022/05/04 07:01:54;;;;;;;;;;;11.10;72.60;;;;;;5073774;28;20407;-67
2022/05/04 07:04:20;;;;;;;;;;;11.10;72.50;;;;;;5076317;28;20081;-67
2022/05/04 07:06:46;;;;;;;;;;;11.10;72.40;;;;;;5081421;28;19957;-67
2022/05/04 07:09:11;;;;;;;;;;;11.10;72.40;;;;;;5070739;28;19913;-67
2022/05/04 07:11:37;;;;;;;;;;;11.10;72.40;;;;;;5083864;28;19912;-67
2022/05/04 07:14:02;;;;;;;;;;;11.10;72.30;;;;;;5087712;28;19916;-67
2022/05/04 07:16:28;;;;;;;;;;;11.10;72.50;;;;;;5077977;28;20377;-67
2022/05/04 07:18:53;;;;;;;;;;;11.20;72.40;;;;;;5078300;28;19916;-67
2022/05/04 07:21:18;;;;;;;;;;;11.20;72.30;;;;;;5084120;28;20380;-67
2022/05/04 07:23:44;;;;;;;;;;;11.20;72.90;;;;;;5083873;28;19912;-67
2022/05/04 07:26:09;;;;;;;;;;;11.20;72.30;;;;;;5074841;28;19969;-67
2022/05/04 07:28:35;;;;;;;;;;;11.20;72.30;;;;;;5082665;28;19908;-67
2022/05/04 07:31:00;;;;;;;;;;;11.30;72.30;;;;;;5080274;28;19915;-67
2022/05/04 07:33:26;;;;;;;;;;;11.30;72.30;;;;;;5084130;28;20015;-67
2022/05/04 07:35:51;;;;;;;;;;;11.30;72.30;;;;;;5079310;28;19923;-67
2022/05/04 07:38:17;;;;;;;;;;;11.30;72.30;;;;;;5089417;28;19916;-67
2022/05/04 07:43:26;;;;;;;;;;;11.40;72.30;;;;;;5082135;28;19958;-67
2022/05/04 07:45:52;;;;;;;;;;;11.40;72.10;;;;;;5086167;28;19961;-67
2022/05/04 07:48:17;;;;;;;;;;;11.40;72.10;;;;;;5080216;28;19943;-67
2022/05/04 07:50:43;;;;;;;;;;;11.40;72.10;;;;;;5079060;28;19992;-67
2022/05/04 07:53:08;;;;;;;;;;;11.50;72.10;;;;;;5080028;28;20426;-67
2022/05/04 07:55:36;;;;;;;;;;;11.50;71.90;;;;;;5070534;28;19927;-67
2022/05/04 07:58:01;;;;;;;;;;;11.50;71.80;;;;;;5084221;28;19930;-67
2022/05/04 08:05:55;;;;;;;;;;;11.60;71.60;;;;;;5072173;28;19969;-67
2022/05/04 08:08:20;;;;;;;;;;;11.60;71.50;;;;;;5079520;28;19920;-67
2022/05/04 08:10:46;;;;;;;;;;;11.70;71.60;;;;;;5072632;28;19913;-67
2022/05/04 08:13:12;;;;;;;;;;;11.70;71.40;;;;;;5086696;28;19916;-67
2022/05/04 08:15:37;;;;;;;;;;;11.70;71.60;;;;;;5085364;28;19950;-67
2022/05/04 08:18:03;;;;;;;;;;;11.80;71.50;;;;;;5083399;28;20393;-67
2022/05/04 08:20:29;;;;;;;;;;;11.80;71.30;;;;;;5081786;28;19908;-67
2022/05/04 08:22:55;;;;;;;;;;;11.80;71.20;;;;;;5084517;28;19974;-67
2022/05/04 08:25:21;;;;;;;;;;;11.80;71.10;;;;;;5076678;28;19916;-67
2022/05/04 08:27:46;;;;;;;;;;;11.90;71.20;;;;;;5078903;28;19948;-67
2022/05/04 08:30:12;;;;;;;;;;;12.00;71.20;;;;;;5077265;28;20373;-67
2022/05/04 08:32:38;;;;;;;;;;;12.00;70.90;;;;;;5085010;28;20098;-67
2022/05/04 08:35:03;;;;;;;;;;;12.00;70.80;;;;;;5079326;28;19909;-67
2022/05/04 08:37:29;;;;;;;;;;;12.10;70.80;;;;;;5077124;28;19920;-67
2022/05/04 08:39:55;;;;;;;;;;;12.20;70.70;;;;;;5081294;28;20303;-67
2022/05/04 08:42:21;;;;;;;;;;;12.20;70.60;;;;;;5079217;28;19916;-67
2022/05/04 08:44:52;;;;;;;;;;;12.20;70.60;;;;;;5072561;28;19916;-67
2022/05/04 08:47:20;;;;;;;;;;;12.20;70.40;;;;;;5071228;28;19913;-67
2022/05/04 08:49:46;;;;;;;;;;;12.30;70.40;;;;;;5077392;28;19981;-67
2022/05/04 08:52:12;;;;;;;;;;;12.30;70.30;;;;;;5074758;28;20285;-67
2022/05/04 08:54:37;;;;;;;;;;;12.40;70.40;;;;;;5075092;28;19926;-67
2022/05/04 08:57:03;;;;;;;;;;;12.40;70.40;;;;;;5084669;28;19908;-67
2022/05/04 08:59:29;;;;;;;;;;;12.40;70.30;;;;;;5078577;28;20002;-67
2022/05/04 09:01:54;;;;;;;;;;;12.50;70.40;;;;;;5083039;28;19995;-67
2022/05/04 09:04:20;;;;;;;;;;;12.50;70.30;;;;;;5081019;28;19919;-67
2022/05/04 09:06:45;;;;;;;;;;;12.50;70.20;;;;;;5081745;28;19912;-67
2022/05/04 09:09:11;;;;;;;;;;;12.60;70.20;;;;;;5075194;28;19916;-67
2022/05/04 09:11:37;;;;;;;;;;;12.60;70.10;;;;;;5080264;28;19917;-67
2022/05/04 09:14:20;;;;;;;;;;;12.70;70.10;;;;;;5078863;28;19923;-67
2022/05/04 09:16:48;;;;;;;;;;;12.70;70.00;;;;;;5084863;28;19908;-67
2022/05/04 09:19:15;;;;;;;;;;;12.80;69.90;;;;;;5082273;28;19912;-67
2022/05/04 09:21:40;;;;;;;;;;;12.80;69.80;;;;;;5073425;27;19962;-67
2022/05/04 09:24:06;;;;;;;;;;;12.90;70.10;;;;;;5071337;28;19912;-67
2022/05/04 09:26:37;;;;;;;;;;;12.90;70.00;;;;;;5080530;28;19971;-67
2022/05/04 09:29:04;;;;;;;;;;;13.00;69.80;;;;;;5068381;28;19975;-67
2022/05/04 09:31:30;;;;;;;;;;;13.00;69.60;;;;;;5077401;28;20355;-67
2022/05/04 09:33:58;;;;;;;;;;;13.10;70.10;;;;;;5079174;28;19943;-67
2022/05/04 09:36:33;;;;;;;;;;;13.20;69.50;;;;;;5074399;28;19916;-67
2022/05/04 09:47:19;;;;;;;;;;;13.50;69.20;;;;;;5087865;28;20280;-67
2022/05/04 09:49:46;;;;;;;;;;;13.50;69.00;;;;;;5072873;28;19963;-67
2022/05/04 09:52:14;;;;;;;;;;;13.60;68.80;;;;;;5074476;28;20374;-67
2022/05/04 09:54:39;;;;;;;;;;;13.70;68.90;;;;;;5073373;28;20007;-67
2022/05/04 09:57:06;;;;;;;;;;;13.70;68.70;;;;;;5083043;28;20609;-67
2022/05/04 09:59:32;;;;;;;;;;;13.70;69.00;;;;;;5078823;28;20490;-67
2022/05/04 10:01:59;;;;;;;;;;;13.80;68.80;;;;;;5072734;28;19920;-67
2022/05/04 10:04:25;;;;;;;;;;;13.90;68.80;;;;;;5075700;28;20400;-67
2022/05/04 10:06:51;;;;;;;;;;;14.00;68.40;;;;;;5079744;28;19991;-67
2022/05/04 10:09:17;;;;;;;;;;;14.10;68.30;;;;;;5085450;28;20361;-67
2022/05/04 10:11:42;;;;;;;;;;;14.10;68.20;;;;;;5074986;28;19920;-67
2022/05/04 10:14:10;;;;;;;;;;;14.10;68.30;;;;;;5082759;28;19912;-67
2022/05/04 10:16:41;;;;;;;;;;;14.10;68.50;;;;;;5072157;28;19912;-67
2022/05/04 10:19:11;;;;;;;;;;;14.10;68.70;;;;;;5074067;28;20393;-67
2022/05/04 10:21:37;;;;;;;;;;;14.20;68.70;;;;;;5078553;28;20447;-67
2022/05/04 10:24:07;;;;;;;;;;;14.20;68.50;;;;;;5086130;28;19920;-67
2022/05/04 10:26:37;;;;;;;;;;;14.30;68.30;;;;;;5073206;28;19955;-67
2022/05/04 10:32:37;;;;;;;;;;;14.40;68.20;;;;;;5053684;28;19916;-67
2022/05/04 10:35:21;;;;;;;;;;;14.50;67.90;;;;;;5063603;28;19993;-67
2022/05/04 10:37:54;;;;;;;;;;;14.60;68.10;;;;;;5065679;28;19917;-67
2022/05/04 10:40:26;;;;;;;;;;;14.70;67.90;;;;;;5073828;28;20122;-67
2022/05/04 10:42:54;;;;;;;;;;;14.70;67.70;;;;;;5075658;28;19920;-67
2022/05/04 10:45:21;;;;;;;;;;;14.80;67.80;;;;;;5084221;28;19955;-67
2022/05/04 10:47:48;;;;;;;;;;;14.80;67.50;;;;;;5071164;28;19923;-67
2022/05/04 10:50:16;;;;;;;;;;;14.80;67.40;;;;;;5076880;28;19963;-67
2022/05/04 10:52:48;;;;;;;;;;;14.90;67.40;;;;;;5076119;28;19938;-67
2022/05/04 10:55:13;;;;;;;;;;;15.00;67.20;;;;;;5074188;28;19912;-67
2022/05/04 10:57:41;;;;;;;;;;;15.10;67.20;;;;;;5071904;28;19927;-67
2022/05/04 11:00:07;;;;;;;;;;;15.20;67.10;;;;;;5091407;28;20003;-67
2022/05/04 11:02:32;;;;;;;;;;;15.30;66.70;;;;;;5077569;28;20078;-67
2022/05/04 11:05:10;;;;;;;;;;;15.30;66.70;;;;;;5083244;28;19916;-67
2022/05/04 11:07:36;;;;;;;;;;;15.30;66.60;;;;;;5072798;28;19952;-67
2022/05/04 11:10:02;;;;;;;;;;;15.40;66.70;;;;;;5073817;28;20021;-67
2022/05/04 11:12:27;;;;;;;;;;;15.40;66.60;;;;;;5072835;28;20021;-67
2022/05/04 11:14:53;;;;;;;;;;;15.60;66.90;;;;;;5087316;28;20523;-67
2022/05/04 11:17:19;;;;;;;;;;;15.70;66.60;;;;;;5079910;28;19912;-67
2022/05/04 11:19:45;;;;;;;;;;;15.70;66.80;;;;;;5076903;28;19919;-67
2022/05/04 11:22:12;;;;;;;;;;;15.80;66.10;;;;;;5083553;28;19920;-67
2022/05/04 11:24:37;;;;;;;;;;;15.90;66.20;;;;;;5075165;28;19936;-67
2022/05/04 11:27:04;;;;;;;;;;;15.90;66.00;;;;;;5076171;28;19916;-67
2022/05/04 11:29:29;;;;;;;;;;;16.10;66.00;;;;;;5079500;28;19939;-67
2022/05/04 11:31:56;;;;;;;;;;;16.30;65.60;;;;;;5081063;28;20588;-67
2022/05/04 11:34:22;;;;;;;;;;;16.40;65.00;;;;;;5076989;28;19916;-67
2022/05/04 11:36:48;;;;;;;;;;;16.50;65.20;;;;;;5083780;28;19962;-67
2022/05/04 11:39:18;;;;;;;;;;;16.60;64.70;;;;;;5074546;28;19912;-67
2022/05/04 11:41:44;;;;;;;;;;;16.60;64.40;;;;;;5080522;28;19928;-67
2022/05/04 11:44:10;;;;;;;;;;;16.60;64.30;;;;;;5074991;28;19972;-67
2022/05/04 11:46:35;;;;;;;;;;;16.60;64.50;;;;;;5085211;28;19920;-67
2022/05/04 11:49:01;;;;;;;;;;;16.60;64.40;;;;;;5090767;28;19923;-67
2022/05/04 11:51:26;;;;;;;;;;;16.70;64.60;;;;;;5084104;28;19915;-67
2022/05/04 11:53:52;;;;;;;;;;;16.70;64.50;;;;;;5083030;28;20375;-67
2022/05/04 11:56:17;;;;;;;;;;;16.70;64.60;;;;;;5079639;28;20599;-67
2022/05/04 11:58:43;;;;;;;;;;;16.70;64.70;;;;;;5074595;28;19912;-67
2022/05/04 12:01:09;;;;;;;;;;;16.70;64.70;;;;;;5081930;28;19935;-67
2022/05/04 12:03:36;;;;;;;;;;;16.70;64.90;;;;;;5080038;28;19919;-67
2022/05/04 12:06:03;;;;;;;;;;;16.70;65.00;;;;;;5083197;28;19948;-67
2022/05/04 12:08:29;;;;;;;;;;;16.70;64.80;;;;;;5086177;28;20569;-67
2022/05/04 12:10:55;;;;;;;;;;;16.70;64.90;;;;;;5074839;28;19908;-68
2022/05/04 12:13:22;;;;;;;;;;;16.80;65.10;;;;;;5072245;28;19956;-68
2022/05/04 12:15:49;;;;;;;;;;;16.90;64.70;;;;;;5076605;28;20012;-68
2022/05/04 12:18:15;;;;;;;;;;;17.00;64.80;;;;;;5075604;28;19986;-67
2022/05/04 12:20:47;;;;;;;;;;;17.10;64.30;;;;;;5081611;28;20007;-67
2022/05/04 12:23:13;;;;;;;;;;;17.10;64.30;;;;;;5074033;28;19920;-67
2022/05/04 12:25:39;;;;;;;;;;;17.00;64.20;;;;;;5080156;28;19912;-67
2022/05/04 12:28:05;;;;;;;;;;;17.00;64.60;;;;;;5076909;28;19920;-67
2022/05/04 12:33:15;;;;;;;;;;;17.20;64.10;;;;;;5084804;28;19922;-67
2022/05/04 12:35:44;;;;;;;;;;;17.30;64.20;;;;;;5072080;28;19928;-67
2022/05/04 12:38:19;;;;;;;;;;;17.30;64.40;;;;;;5078656;28;20004;-67
2022/05/04 12:40:45;;;;;;;;;;;17.20;64.40;;;;;;5076803;28;19927;-67
2022/05/04 12:43:12;;;;;;;;;;;17.20;64.50;;;;;;5077372;28;20292;-67
2022/05/04 12:45:38;;;;;;;;;;;17.30;64.20;;;;;;5081454;28;19923;-67
2022/05/04 12:48:07;;;;;;;;;;;17.30;64.60;;;;;;5075896;28;19923;-67
2022/05/04 12:50:33;;;;;;;;;;;17.40;64.60;;;;;;5085978;28;20415;-67
2022/05/04 12:52:58;;;;;;;;;;;17.50;63.60;;;;;;5073115;28;19916;-67
2022/05/04 12:56:46;;;;;;;;;;;17.50;64.00;;;;;;5082592;28;19920;-67
2022/05/04 12:58:10;;;;;;;;;;;17.40;64.40;;;;;;5076938;28;19963;-67
2022/05/04 13:00:36;;;;;;;;;;;17.40;64.50;;;;;;5078730;28;19978;-67
2022/05/04 13:03:02;;;;;;;;;;;17.50;63.60;;;;;;5078402;28;19916;-67
2022/05/04 13:05:27;;;;;;;;;;;17.40;63.50;;;;;;5081131;28;20436;-67
2022/05/04 13:07:53;;;;;;;;;;;17.40;64.00;;;;;;5080111;28;19977;-67
2022/05/04 13:10:18;;;;;;;;;;;17.50;64.10;;;;;;5081467;28;19992;-67
2022/05/04 13:12:44;;;;;;;;;;;17.60;63.70;;;;;;5071987;28;19912;-67
2022/05/04 13:15:10;;;;;;;;;;;17.70;63.40;;;;;;5082121;28;19919;-67
2022/05/04 13:17:35;;;;;;;;;;;17.80;63.90;;;;;;5071438;28;19908;-67
2022/05/04 13:20:01;;;;;;;;;;;17.90;63.10;;;;;;5082572;28;19943;-67
2022/05/04 13:22:27;;;;;;;;;;;17.90;62.90;;;;;;5079005;28;19921;-67
2022/05/04 13:24:52;;;;;;;;;;;18.10;62.00;;;;;;5078519;28;19917;-67
2022/05/04 13:27:17;;;;;;;;;;;18.00;62.00;;;;;;5077491;28;20578;-67
2022/05/04 13:29:43;;;;;;;;;;;17.90;61.70;;;;;;5075869;28;19920;-67
2022/05/04 13:32:08;;;;;;;;;;;17.80;62.40;;;;;;5082906;28;20011;-67
2022/05/04 13:34:35;;;;;;;;;;;17.90;62.50;;;;;;5075138;28;19917;-67
2022/05/04 13:37:01;;;;;;;;;;;17.90;62.80;;;;;;5076923;28;20000;-67
2022/05/04 13:39:26;;;;;;;;;;;18.10;62.10;;;;;;5073522;28;19916;-67
2022/05/04 13:41:52;;;;;;;;;;;18.20;61.50;;;;;;5075703;28;20648;-67
2022/05/04 13:44:17;;;;;;;;;;;18.30;61.10;;;;;;5070407;28;19924;-67
2022/05/04 13:46:43;;;;;;;;;;;18.50;60.30;;;;;;5083647;28;19916;-67
2022/05/04 13:49:08;;;;;;;;;;;18.50;60.60;;;;;;5080034;28;19920;-67
2022/05/04 13:54:17;;;;;;;;;;;18.70;61.40;;;;;;5071401;28;19962;-70
2022/05/04 13:56:43;;;;;;;;;;;18.80;61.70;;;;;;5077909;28;19947;-67
2022/05/04 13:59:09;;;;;;;;;;;18.80;60.20;;;;;;5075753;28;19909;-68
2022/05/04 14:01:34;;;;;;;;;;;18.80;60.80;;;;;;5075213;28;20383;-68
2022/05/04 14:04:00;;;;;;;;;;;18.90;61.60;;;;;;5071054;28;19925;-69
2022/05/04 14:06:25;;;;;;;;;;;18.90;60.90;;;;;;5075663;28;19952;-67
2022/05/04 14:08:51;;;;;;;;;;;18.90;61.30;;;;;;5079174;28;19912;-67
2022/05/04 14:11:17;;;;;;;;;;;19.00;60.90;;;;;;5079662;28;19923;-67
2022/05/04 14:13:42;;;;;;;;;;;19.10;60.80;;;;;;5075012;28;20289;-67
2022/05/04 14:16:09;;;;;;;;;;;19.10;61.50;;;;;;5071514;28;20588;-67
2022/05/04 14:18:35;;;;;;;;;;;19.20;61.10;;;;;;5071657;28;19924;-67
2022/05/04 14:21:04;;;;;;;;;;;19.20;60.50;;;;;;5075701;28;19912;-67
2022/05/04 14:23:30;;;;;;;;;;;19.40;59.20;;;;;;5077533;28;19916;-67
2022/05/04 14:25:56;;;;;;;;;;;19.40;59.40;;;;;;5073478;28;19926;-67
2022/05/04 14:28:25;;;;;;;;;;;19.50;57.80;;;;;;5081425;28;19908;-66
2022/05/04 14:30:51;;;;;;;;;;;19.50;55.10;;;;;;5073258;28;19912;-67
2022/05/04 14:33:16;;;;;;;;;;;19.60;56.80;;;;;;5074776;28;20063;-67
2022/05/04 14:35:42;;;;;;;;;;;19.70;55.10;;;;;;5066485;28;19912;-68
2022/05/04 14:38:08;;;;;;;;;;;19.80;56.20;;;;;;5081714;28;20320;-68
2022/05/04 14:40:33;;;;;;;;;;;19.90;51.70;;;;;;5078456;28;19916;-69
2022/05/04 14:43:00;;;;;;;;;;;20.00;52.40;;;;;;5074355;28;19924;-67
2022/05/04 14:45:26;;;;;;;;;;;20.10;51.40;;;;;;5075717;28;20056;-69
2022/05/04 14:47:52;;;;;;;;;;;20.20;52.20;;;;;;5074624;28;19944;-69
2022/05/04 14:50:18;;;;;;;;;;;20.30;52.00;;;;;;5073388;28;19924;-68
2022/05/04 14:52:44;;;;;;;;;;;20.40;51.60;;;;;;5081043;28;19947;-67